sensor_id;sensor_type;location;lat;lon;timestamp;temperature;humidity
3488;DHT22;38546;48.170;11.724;2023-03-19T00:01:37;7.40;99.90
3488;DHT22;38546;48.170;11.724;2023-03-19T00:04:27;7.30;99.90
3488;DHT22;38546;48.170;11.724;2023-03-19T00:07:16;7.30;99.90
3488;DHT22;38546;48.170;11.724;2023-03-19T00:10:06;7.30;99.90
3488;DHT22;38546;48.170;11.724;2023-03-19T00:12:56;7.30;99.90
3488;DHT22;38546;48.170;11.724;2023-03-19T00:15:45;7.30;99.90
3488;DHT22;38546;48.170;11.724;2023-03-19T00:18:38;7.30;99.90
3488;DHT22;38546;48.170;11.724;2023-03-19T00:21:27;7.30;99.90
3488;DHT22;38546;48.170;11.724;2023-03-19T00:24:16;7.20;99.90
3488;DHT22;38546;48.170;11.724;2023-03-19T00:27:05;7.20;99.90
3488;DHT22;38546;48.170;11.724;2023-03-19T00:29:55;7.20;99.90
3488;DHT22;38546;48.170;11.724;2023-03-19T00:32:45;7.20;99.90
3488;DHT22;38546;48.170;11.724;2023-03-19T00:35:34;7.10;99.90
3488;DHT22;38546;48.170;11.724;2023-03-19T00:38:23;7.00;99.90
3488;DHT22;38546;48.170;11.724;2023-03-19T00:41:12;7.00;99.90
3488;DHT22;38546;48.170;11.724;2023-03-19T00:44:02;6.90;99.90
3488;DHT22;38546;48.170;11.724;2023-03-19T00:46:52;6.80;99.90
3488;DHT22;38546;48.170;11.724;2023-03-19T00:49:41;6.70;99.90
3488;DHT22;38546;48.170;11.724;2023-03-19T00:52:31;6.60;99.90
3488;DHT22;38546;48.170;11.724;2023-03-19T00:55:20;6.60;99.90
3488;DHT22;38546;48.170;11.724;2023-03-19T00:58:09;6.50;99.90
3488;DHT22;38546;48.170;11.724;2023-03-19T01:00:59;6.50;99.90
3488;DHT22;38546;48.170;11.724;2023-03-19T01:03:48;6.40;99.90
3488;DHT22;38546;48.170;11.724;2023-03-19T01:06:37;6.30;99.90
3488;DHT22;38546;48.170;11.724;2023-03-19T01:09:27;6.20;99.90
3488;DHT22;38546;48.170;11.724;2023-03-19T01:12:16;6.20;99.90
3488;DHT22;38546;48.170;11.724;2023-03-19T01:15:08;6.20;99.90
3488;DHT22;38546;48.170;11.724;2023-03-19T01:17:58;6.20;99.90
3488;DHT22;38546;48.170;11.724;2023-03-19T01:20:47;6.20;99.90
3488;DHT22;38546;48.170;11.724;2023-03-19T01:23:36;6.10;99.90
3488;DHT22;38546;48.170;11.724;2023-03-19T01:26:25;6.10;99.90
3488;DHT22;38546;48.170;11.724;2023-03-19T01:29:15;6.10;99.90
3488;DHT22;38546;48.170;11.724;2023-03-19T01:32:04;6.10;99.90
3488;DHT22;38546;48.170;11.724;2023-03-19T01:34:54;6.10;99.90
3488;DHT22;38546;48.170;11.724;2023-03-19T01:37:43;6.10;99.90
3488;DHT22;38546;48.170;11.724;2023-03-19T01:40:32;6.10;99.90
3488;DHT22;38546;48.170;11.724;2023-03-19T01:43:23;6.00;99.90
3488;DHT22;38546;48.170;11.724;2023-03-19T01:46:30;6.00;99.90
3488;DHT22;38546;48.170;11.724;2023-03-19T01:49:22;6.00;99.90
3488;DHT22;38546;48.170;11.724;2023-03-19T01:52:13;6.00;99.90
3488;DHT22;38546;48.170;11.724;2023-03-19T01:55:05;5.90;99.90
3488;DHT22;38546;48.170;11.724;2023-03-19T01:57:55;5.90;99.90
3488;DHT22;38546;48.170;11.724;2023-03-19T02:00:45;5.90;99.90
3488;DHT22;38546;48.170;11.724;2023-03-19T02:03:36;5.90;99.90
3488;DHT22;38546;48.170;11.724;2023-03-19T02:06:26;6.00;99.90
3488;DHT22;38546;48.170;11.724;2023-03-19T02:09:18;5.90;99.90
3488;DHT22;38546;48.170;11.724;2023-03-19T02:12:08;6.00;99.90
3488;DHT22;38546;48.170;11.724;2023-03-19T02:14:58;6.00;99.90
3488;DHT22;38546;48.170;11.724;2023-03-19T02:17:48;6.00;99.90
3488;DHT22;38546;48.170;11.724;2023-03-19T02:20:46;5.90;99.90
3488;DHT22;38546;48.170;11.724;2023-03-19T02:24:05;6.00;99.90
3488;DHT22;38546;48.170;11.724;2023-03-19T02:27:00;6.00;99.90
3488;DHT22;38546;48.170;11.724;2023-03-19T02:29:50;6.00;99.90
3488;DHT22;38546;48.170;11.724;2023-03-19T02:32:40;6.10;99.90
3488;DHT22;38546;48.170;11.724;2023-03-19T02:35:32;6.00;99.90
3488;DHT22;38546;48.170;11.724;2023-03-19T02:38:24;6.00;99.90
3488;DHT22;38546;48.170;11.724;2023-03-19T02:41:15;6.00;99.90
3488;DHT22;38546;48.170;11.724;2023-03-19T02:44:05;6.00;99.90
3488;DHT22;38546;48.170;11.724;2023-03-19T02:46:55;5.90;99.90
3488;DHT22;38546;48.170;11.724;2023-03-19T02:49:44;5.90;99.90
3488;DHT22;38546;48.170;11.724;2023-03-19T02:52:34;5.90;99.90
3488;DHT22;38546;48.170;11.724;2023-03-19T02:55:24;5.80;99.90
3488;DHT22;38546;48.170;11.724;2023-03-19T02:58:13;5.80;99.90
3488;DHT22;38546;48.170;11.724;2023-03-19T03:01:03;5.70;99.90
3488;DHT22;38546;48.170;11.724;2023-03-19T03:03:54;5.70;99.90
3488;DHT22;38546;48.170;11.724;2023-03-19T03:06:44;5.70;99.90
3488;DHT22;38546;48.170;11.724;2023-03-19T03:09:33;5.70;99.90
3488;DHT22;38546;48.170;11.724;2023-03-19T03:12:23;5.70;99.90
3488;DHT22;38546;48.170;11.724;2023-03-19T03:15:12;5.70;99.90
3488;DHT22;38546;48.170;11.724;2023-03-19T03:18:02;5.80;99.90
3488;DHT22;38546;48.170;11.724;2023-03-19T03:20:51;5.80;99.90
3488;DHT22;38546;48.170;11.724;2023-03-19T03:23:42;5.80;99.90
3488;DHT22;38546;48.170;11.724;2023-03-19T03:26:31;5.90;99.90
3488;DHT22;38546;48.170;11.724;2023-03-19T03:29:20;5.90;99.90
3488;DHT22;38546;48.170;11.724;2023-03-19T03:32:09;6.00;99.90
3488;DHT22;38546;48.170;11.724;2023-03-19T03:34:59;6.00;99.90
3488;DHT22;38546;48.170;11.724;2023-03-19T03:37:50;6.00;99.90
3488;DHT22;38546;48.170;11.724;2023-03-19T03:40:39;6.00;99.90
3488;DHT22;38546;48.170;11.724;2023-03-19T03:43:29;6.10;99.90
3488;DHT22;38546;48.170;11.724;2023-03-19T03:46:19;6.10;99.90
3488;DHT22;38546;48.170;11.724;2023-03-19T03:49:08;6.10;99.90
3488;DHT22;38546;48.170;11.724;2023-03-19T03:51:58;6.10;99.90
3488;DHT22;38546;48.170;11.724;2023-03-19T03:54:47;6.10;99.90
3488;DHT22;38546;48.170;11.724;2023-03-19T03:57:36;6.10;99.90
3488;DHT22;38546;48.170;11.724;2023-03-19T04:00:26;6.10;99.90
3488;DHT22;38546;48.170;11.724;2023-03-19T04:03:15;6.10;99.90
3488;DHT22;38546;48.170;11.724;2023-03-19T04:06:05;6.20;99.90
3488;DHT22;38546;48.170;11.724;2023-03-19T04:08:55;6.20;99.90
3488;DHT22;38546;48.170;11.724;2023-03-19T04:11:44;6.30;99.90
3488;DHT22;38546;48.170;11.724;2023-03-19T04:14:34;6.30;99.90
3488;DHT22;38546;48.170;11.724;2023-03-19T04:17:23;6.30;99.90
3488;DHT22;38546;48.170;11.724;2023-03-19T04:20:12;6.30;99.90
3488;DHT22;38546;48.170;11.724;2023-03-19T04:23:04;6.30;99.90
3488;DHT22;38546;48.170;11.724;2023-03-19T04:25:57;6.30;99.90
3488;DHT22;38546;48.170;11.724;2023-03-19T04:28:48;6.40;99.90
3488;DHT22;38546;48.170;11.724;2023-03-19T04:31:37;6.40;99.90
3488;DHT22;38546;48.170;11.724;2023-03-19T04:34:27;6.40;99.90
3488;DHT22;38546;48.170;11.724;2023-03-19T04:37:16;6.40;99.90
3488;DHT22;38546;48.170;11.724;2023-03-19T04:40:06;6.40;99.90
3488;DHT22;38546;48.170;11.724;2023-03-19T04:42:56;6.40;99.90
3488;DHT22;38546;48.170;11.724;2023-03-19T04:45:45;6.40;99.90
3488;DHT22;38546;48.170;11.724;2023-03-19T04:48:35;6.60;99.90
3488;DHT22;38546;48.170;11.724;2023-03-19T04:51:24;6.60;99.90
3488;DHT22;38546;48.170;11.724;2023-03-19T04:54:14;6.60;99.90
3488;DHT22;38546;48.170;11.724;2023-03-19T04:57:04;6.60;99.90
3488;DHT22;38546;48.170;11.724;2023-03-19T04:59:53;6.60;99.90
3488;DHT22;38546;48.170;11.724;2023-03-19T05:02:43;6.50;99.90
3488;DHT22;38546;48.170;11.724;2023-03-19T05:05:32;6.50;99.90
3488;DHT22;38546;48.170;11.724;2023-03-19T05:08:22;6.60;99.90
3488;DHT22;38546;48.170;11.724;2023-03-19T05:11:11;6.50;99.90
3488;DHT22;38546;48.170;11.724;2023-03-19T05:14:01;6.60;99.90
3488;DHT22;38546;48.170;11.724;2023-03-19T05:16:51;6.60;99.90
3488;DHT22;38546;48.170;11.724;2023-03-19T05:19:40;6.60;99.90
3488;DHT22;38546;48.170;11.724;2023-03-19T05:22:30;6.60;99.90
3488;DHT22;38546;48.170;11.724;2023-03-19T05:25:19;6.60;99.90
3488;DHT22;38546;48.170;11.724;2023-03-19T05:28:09;6.60;99.90
3488;DHT22;38546;48.170;11.724;2023-03-19T05:30:58;6.70;99.90
3488;DHT22;38546;48.170;11.724;2023-03-19T05:33:48;6.70;99.90
3488;DHT22;38546;48.170;11.724;2023-03-19T05:36:37;6.80;99.90
3488;DHT22;38546;48.170;11.724;2023-03-19T05:39:26;6.70;99.90
3488;DHT22;38546;48.170;11.724;2023-03-19T05:42:15;6.80;99.90
3488;DHT22;38546;48.170;11.724;2023-03-19T05:45:06;6.80;99.90
3488;DHT22;38546;48.170;11.724;2023-03-19T05:47:56;6.90;99.90
3488;DHT22;38546;48.170;11.724;2023-03-19T05:50:44;6.90;99.90
3488;DHT22;38546;48.170;11.724;2023-03-19T05:53:34;7.00;99.90
3488;DHT22;38546;48.170;11.724;2023-03-19T05:56:23;7.10;99.90
3488;DHT22;38546;48.170;11.724;2023-03-19T05:59:12;7.20;99.90
3488;DHT22;38546;48.170;11.724;2023-03-19T06:02:02;7.30;99.90
3488;DHT22;38546;48.170;11.724;2023-03-19T06:04:51;7.50;99.90
3488;DHT22;38546;48.170;11.724;2023-03-19T06:07:40;7.60;99.90
3488;DHT22;38546;48.170;11.724;2023-03-19T06:10:29;7.80;99.90
3488;DHT22;38546;48.170;11.724;2023-03-19T06:13:19;8.00;99.90
3488;DHT22;38546;48.170;11.724;2023-03-19T06:16:08;8.00;99.90
3488;DHT22;38546;48.170;11.724;2023-03-19T06:18:58;8.10;99.90
3488;DHT22;38546;48.170;11.724;2023-03-19T06:21:47;8.10;99.90
3488;DHT22;38546;48.170;11.724;2023-03-19T06:24:36;8.00;99.90
3488;DHT22;38546;48.170;11.724;2023-03-19T06:27:25;8.20;99.90
3488;DHT22;38546;48.170;11.724;2023-03-19T06:30:15;8.20;99.90
3488;DHT22;38546;48.170;11.724;2023-03-19T06:33:04;8.40;99.90
3488;DHT22;38546;48.170;11.724;2023-03-19T06:35:53;8.60;99.90
3488;DHT22;38546;48.170;11.724;2023-03-19T06:38:42;8.80;99.90
3488;DHT22;38546;48.170;11.724;2023-03-19T06:41:31;9.00;99.90
3488;DHT22;38546;48.170;11.724;2023-03-19T06:44:20;9.10;99.90
3488;DHT22;38546;48.170;11.724;2023-03-19T06:47:09;9.20;99.90
3488;DHT22;38546;48.170;11.724;2023-03-19T06:49:58;9.30;99.90
3488;DHT22;38546;48.170;11.724;2023-03-19T06:52:48;9.50;99.90
3488;DHT22;38546;48.170;11.724;2023-03-19T06:55:38;9.30;99.90
3488;DHT22;38546;48.170;11.724;2023-03-19T06:58:28;9.30;99.90
3488;DHT22;38546;48.170;11.724;2023-03-19T07:01:16;9.40;99.90
3488;DHT22;38546;48.170;11.724;2023-03-19T07:04:07;9.80;99.90
3488;DHT22;38546;48.170;11.724;2023-03-19T07:06:56;9.90;99.90
3488;DHT22;38546;48.170;11.724;2023-03-19T07:09:45;9.70;99.90
3488;DHT22;38546;48.170;11.724;2023-03-19T07:12:35;9.60;99.90
3488;DHT22;38546;48.170;11.724;2023-03-19T07:15:24;9.60;99.90
3488;DHT22;38546;48.170;11.724;2023-03-19T07:18:13;9.70;99.90
3488;DHT22;38546;48.170;11.724;2023-03-19T07:21:02;10.00;99.90
3488;DHT22;38546;48.170;11.724;2023-03-19T07:23:51;9.90;99.90
3488;DHT22;38546;48.170;11.724;2023-03-19T07:26:40;9.90;99.90
3488;DHT22;38546;48.170;11.724;2023-03-19T07:29:30;10.00;99.90
3488;DHT22;38546;48.170;11.724;2023-03-19T07:32:19;10.20;99.90
3488;DHT22;38546;48.170;11.724;2023-03-19T07:35:08;10.10;99.90
3488;DHT22;38546;48.170;11.724;2023-03-19T07:37:58;10.00;99.90
3488;DHT22;38546;48.170;11.724;2023-03-19T07:40:49;10.10;99.90
3488;DHT22;38546;48.170;11.724;2023-03-19T07:43:39;10.30;99.90
3488;DHT22;38546;48.170;11.724;2023-03-19T07:46:28;10.30;99.90
3488;DHT22;38546;48.170;11.724;2023-03-19T07:49:18;10.50;99.90
3488;DHT22;38546;48.170;11.724;2023-03-19T07:52:07;10.60;99.90
3488;DHT22;38546;48.170;11.724;2023-03-19T07:54:57;10.50;99.90
3488;DHT22;38546;48.170;11.724;2023-03-19T07:57:46;10.50;99.90
3488;DHT22;38546;48.170;11.724;2023-03-19T08:00:35;10.60;99.90
3488;DHT22;38546;48.170;11.724;2023-03-19T08:03:24;10.50;99.90
3488;DHT22;38546;48.170;11.724;2023-03-19T08:06:14;10.70;99.90
3488;DHT22;38546;48.170;11.724;2023-03-19T08:09:03;10.70;99.90
3488;DHT22;38546;48.170;11.724;2023-03-19T08:11:53;10.80;99.90
3488;DHT22;38546;48.170;11.724;2023-03-19T08:14:42;11.00;99.90
3488;DHT22;38546;48.170;11.724;2023-03-19T08:17:31;10.90;99.90
3488;DHT22;38546;48.170;11.724;2023-03-19T08:20:26;11.00;99.90
3488;DHT22;38546;48.170;11.724;2023-03-19T08:23:15;11.10;99.90
3488;DHT22;38546;48.170;11.724;2023-03-19T08:26:05;11.20;99.90
3488;DHT22;38546;48.170;11.724;2023-03-19T08:28:54;11.30;99.90
3488;DHT22;38546;48.170;11.724;2023-03-19T08:31:44;11.20;99.90
3488;DHT22;38546;48.170;11.724;2023-03-19T08:34:34;11.30;99.90
3488;DHT22;38546;48.170;11.724;2023-03-19T08:37:23;11.20;99.90
3488;DHT22;38546;48.170;11.724;2023-03-19T08:40:13;11.30;99.90
3488;DHT22;38546;48.170;11.724;2023-03-19T08:43:02;11.20;99.90
3488;DHT22;38546;48.170;11.724;2023-03-19T08:45:52;11.30;99.90
3488;DHT22;38546;48.170;11.724;2023-03-19T08:48:41;11.40;99.90
3488;DHT22;38546;48.170;11.724;2023-03-19T08:51:31;11.40;99.90
3488;DHT22;38546;48.170;11.724;2023-03-19T08:54:20;11.50;99.90
3488;DHT22;38546;48.170;11.724;2023-03-19T08:57:09;11.40;99.90
3488;DHT22;38546;48.170;11.724;2023-03-19T08:59:59;11.40;99.90
3488;DHT22;38546;48.170;11.724;2023-03-19T09:02:48;11.30;99.90
3488;DHT22;38546;48.170;11.724;2023-03-19T09:05:38;11.20;99.90
3488;DHT22;38546;48.170;11.724;2023-03-19T09:08:29;11.10;99.90
3488;DHT22;38546;48.170;11.724;2023-03-19T09:11:19;11.10;99.90
3488;DHT22;38546;48.170;11.724;2023-03-19T09:14:08;11.10;99.90
3488;DHT22;38546;48.170;11.724;2023-03-19T09:16:59;11.20;99.90
3488;DHT22;38546;48.170;11.724;2023-03-19T09:19:48;11.10;99.90
3488;DHT22;38546;48.170;11.724;2023-03-19T09:22:37;11.10;99.90
3488;DHT22;38546;48.170;11.724;2023-03-19T09:25:27;11.10;99.90
3488;DHT22;38546;48.170;11.724;2023-03-19T09:28:17;11.10;99.90
3488;DHT22;38546;48.170;11.724;2023-03-19T09:31:09;11.10;99.90
3488;DHT22;38546;48.170;11.724;2023-03-19T09:33:59;11.00;99.90
3488;DHT22;38546;48.170;11.724;2023-03-19T09:36:48;11.30;99.90
3488;DHT22;38546;48.170;11.724;2023-03-19T09:39:38;11.40;99.90
3488;DHT22;38546;48.170;11.724;2023-03-19T09:42:48;11.40;99.90
3488;DHT22;38546;48.170;11.724;2023-03-19T09:46:00;11.70;99.90
3488;DHT22;38546;48.170;11.724;2023-03-19T09:49:01;11.80;99.90
3488;DHT22;38546;48.170;11.724;2023-03-19T09:52:09;12.00;99.90
3488;DHT22;38546;48.170;11.724;2023-03-19T09:56:04;12.00;99.90
3488;DHT22;38546;48.170;11.724;2023-03-19T09:58:55;12.20;99.90
3488;DHT22;38546;48.170;11.724;2023-03-19T10:01:51;12.30;99.90
3488;DHT22;38546;48.170;11.724;2023-03-19T10:09:55;12.50;99.90
3488;DHT22;38546;48.170;11.724;2023-03-19T10:13:06;12.90;99.90
3488;DHT22;38546;48.170;11.724;2023-03-19T10:16:06;13.00;99.90
3488;DHT22;38546;48.170;11.724;2023-03-19T10:19:03;13.20;99.90
3488;DHT22;38546;48.170;11.724;2023-03-19T10:21:57;13.30;99.90
3488;DHT22;38546;48.170;11.724;2023-03-19T10:24:49;13.10;99.90
3488;DHT22;38546;48.170;11.724;2023-03-19T10:27:40;13.10;99.90
3488;DHT22;38546;48.170;11.724;2023-03-19T10:30:32;13.20;99.90
3488;DHT22;38546;48.170;11.724;2023-03-19T10:33:24;13.30;99.90
3488;DHT22;38546;48.170;11.724;2023-03-19T10:36:14;13.60;99.90
3488;DHT22;38546;48.170;11.724;2023-03-19T10:39:05;13.50;99.90
3488;DHT22;38546;48.170;11.724;2023-03-19T10:42:43;13.80;99.90
3488;DHT22;38546;48.170;11.724;2023-03-19T10:45:42;13.70;99.90
3488;DHT22;38546;48.170;11.724;2023-03-19T10:48:31;13.80;99.90
3488;DHT22;38546;48.170;11.724;2023-03-19T10:51:24;13.80;99.90
3488;DHT22;38546;48.170;11.724;2023-03-19T10:54:20;13.90;99.90
3488;DHT22;38546;48.170;11.724;2023-03-19T10:57:25;13.90;99.90
3488;DHT22;38546;48.170;11.724;2023-03-19T11:00:18;13.60;99.90
3488;DHT22;38546;48.170;11.724;2023-03-19T11:04:19;13.60;99.90
3488;DHT22;38546;48.170;11.724;2023-03-19T11:07:19;13.90;99.90
3488;DHT22;38546;48.170;11.724;2023-03-19T11:10:13;14.00;99.90
3488;DHT22;38546;48.170;11.724;2023-03-19T11:13:14;14.20;99.90
3488;DHT22;38546;48.170;11.724;2023-03-19T11:16:09;14.10;99.90
3488;DHT22;38546;48.170;11.724;2023-03-19T11:18:59;14.10;99.90
3488;DHT22;38546;48.170;11.724;2023-03-19T11:22:13;14.00;99.90
3488;DHT22;38546;48.170;11.724;2023-03-19T11:25:22;14.00;99.90
3488;DHT22;38546;48.170;11.724;2023-03-19T11:28:19;13.90;99.90
3488;DHT22;38546;48.170;11.724;2023-03-19T11:31:44;13.90;99.90
3488;DHT22;38546;48.170;11.724;2023-03-19T11:35:30;13.90;99.90
3488;DHT22;38546;48.170;11.724;2023-03-19T11:38:44;14.10;99.90
3488;DHT22;38546;48.170;11.724;2023-03-19T11:52:40;13.80;99.90
3488;DHT22;38546;48.170;11.724;2023-03-19T11:59:42;14.20;99.90
3488;DHT22;38546;48.170;11.724;2023-03-19T12:06:58;14.20;99.90
3488;DHT22;38546;48.170;11.724;2023-03-19T12:17:09;14.40;99.90
3488;DHT22;38546;48.170;11.724;2023-03-19T12:20:30;14.50;99.90
3488;DHT22;38546;48.170;11.724;2023-03-19T12:27:08;14.50;99.90
3488;DHT22;38546;48.170;11.724;2023-03-19T12:30:41;14.50;99.90
3488;DHT22;38546;48.170;11.724;2023-03-19T12:39:25;14.60;99.90
3488;DHT22;38546;48.170;11.724;2023-03-19T12:42:19;14.40;99.90
3488;DHT22;38546;48.170;11.724;2023-03-19T12:45:26;14.40;99.90
3488;DHT22;38546;48.170;11.724;2023-03-19T12:48:27;14.40;99.90
3488;DHT22;38546;48.170;11.724;2023-03-19T12:51:23;14.70;99.90
3488;DHT22;38546;48.170;11.724;2023-03-19T12:54:30;14.90;99.90
3488;DHT22;38546;48.170;11.724;2023-03-19T12:57:50;14.80;99.90
3488;DHT22;38546;48.170;11.724;2023-03-19T13:00:57;14.80;99.90
3488;DHT22;38546;48.170;11.724;2023-03-19T13:04:09;15.00;99.90
3488;DHT22;38546;48.170;11.724;2023-03-19T13:07:10;15.00;99.90
3488;DHT22;38546;48.170;11.724;2023-03-19T13:10:12;14.60;99.90
3488;DHT22;38546;48.170;11.724;2023-03-19T13:21:22;14.80;99.90
3488;DHT22;38546;48.170;11.724;2023-03-19T13:24:31;15.00;99.90
3488;DHT22;38546;48.170;11.724;2023-03-19T13:27:30;14.90;99.90
3488;DHT22;38546;48.170;11.724;2023-03-19T13:30:23;14.70;99.90
3488;DHT22;38546;48.170;11.724;2023-03-19T13:33:20;14.60;99.90
3488;DHT22;38546;48.170;11.724;2023-03-19T13:36:12;14.40;99.90
3488;DHT22;38546;48.170;11.724;2023-03-19T13:39:03;14.60;99.90
3488;DHT22;38546;48.170;11.724;2023-03-19T13:48:52;14.90;99.90
3488;DHT22;38546;48.170;11.724;2023-03-19T13:51:41;14.60;99.90
3488;DHT22;38546;48.170;11.724;2023-03-19T13:54:38;14.50;99.90
3488;DHT22;38546;48.170;11.724;2023-03-19T13:57:34;14.40;99.90
3488;DHT22;38546;48.170;11.724;2023-03-19T14:04:38;14.50;99.90
3488;DHT22;38546;48.170;11.724;2023-03-19T14:07:33;14.20;99.90
3488;DHT22;38546;48.170;11.724;2023-03-19T14:10:28;14.10;99.90
3488;DHT22;38546;48.170;11.724;2023-03-19T14:13:28;14.00;99.90
3488;DHT22;38546;48.170;11.724;2023-03-19T14:16:34;14.10;99.90
3488;DHT22;38546;48.170;11.724;2023-03-19T14:19:25;14.10;99.90
3488;DHT22;38546;48.170;11.724;2023-03-19T14:22:20;14.00;99.90
3488;DHT22;38546;48.170;11.724;2023-03-19T14:25:22;14.00;99.90
3488;DHT22;38546;48.170;11.724;2023-03-19T14:28:17;14.10;99.90
3488;DHT22;38546;48.170;11.724;2023-03-19T14:31:19;14.20;99.90
3488;DHT22;38546;48.170;11.724;2023-03-19T14:34:33;14.30;99.90
3488;DHT22;38546;48.170;11.724;2023-03-19T14:37:29;14.50;99.90
3488;DHT22;38546;48.170;11.724;2023-03-19T14:40:29;14.40;99.90
3488;DHT22;38546;48.170;11.724;2023-03-19T14:53:52;14.60;99.90
3488;DHT22;38546;48.170;11.724;2023-03-19T14:56:43;14.60;99.90
3488;DHT22;38546;48.170;11.724;2023-03-19T14:59:37;14.60;99.90
3488;DHT22;38546;48.170;11.724;2023-03-19T15:02:48;14.60;99.90
3488;DHT22;38546;48.170;11.724;2023-03-19T15:05:38;14.60;99.90
3488;DHT22;38546;48.170;11.724;2023-03-19T15:08:30;14.50;99.90
3488;DHT22;38546;48.170;11.724;2023-03-19T15:18:11;14.50;99.90
3488;DHT22;38546;48.170;11.724;2023-03-19T15:21:01;14.50;99.90
3488;DHT22;38546;48.170;11.724;2023-03-19T15:23:52;14.50;99.90
3488;DHT22;38546;48.170;11.724;2023-03-19T15:26:41;14.40;99.90
3488;DHT22;38546;48.170;11.724;2023-03-19T15:29:32;14.40;99.90
3488;DHT22;38546;48.170;11.724;2023-03-19T15:32:32;14.40;99.90
3488;DHT22;38546;48.170;11.724;2023-03-19T15:35:28;14.40;99.90
3488;DHT22;38546;48.170;11.724;2023-03-19T15:38:25;14.40;99.90
3488;DHT22;38546;48.170;11.724;2023-03-19T15:41:17;14.50;99.90
3488;DHT22;38546;48.170;11.724;2023-03-19T15:44:11;14.50;99.90
3488;DHT22;38546;48.170;11.724;2023-03-19T15:47:07;14.40;99.90
3488;DHT22;38546;48.170;11.724;2023-03-19T15:50:05;14.50;99.90
3488;DHT22;38546;48.170;11.724;2023-03-19T15:53:03;14.50;99.90
3488;DHT22;38546;48.170;11.724;2023-03-19T15:55:55;14.40;99.90
3488;DHT22;38546;48.170;11.724;2023-03-19T15:58:46;14.30;99.90
3488;DHT22;38546;48.170;11.724;2023-03-19T16:01:36;14.20;99.90
3488;DHT22;38546;48.170;11.724;2023-03-19T16:04:26;14.20;99.90
3488;DHT22;38546;48.170;11.724;2023-03-19T16:07:37;14.20;99.90
3488;DHT22;38546;48.170;11.724;2023-03-19T16:10:38;14.10;99.90
3488;DHT22;38546;48.170;11.724;2023-03-19T16:13:36;14.10;99.90
3488;DHT22;38546;48.170;11.724;2023-03-19T16:16:29;14.00;99.90
3488;DHT22;38546;48.170;11.724;2023-03-19T16:19:37;13.90;99.90
3488;DHT22;38546;48.170;11.724;2023-03-19T16:22:30;14.00;99.90
3488;DHT22;38546;48.170;11.724;2023-03-19T16:25:22;14.10;99.90
3488;DHT22;38546;48.170;11.724;2023-03-19T16:28:17;13.80;99.90
3488;DHT22;38546;48.170;11.724;2023-03-19T16:31:22;13.70;99.90
3488;DHT22;38546;48.170;11.724;2023-03-19T16:34:23;13.50;99.90
3488;DHT22;38546;48.170;11.724;2023-03-19T16:38:25;13.30;99.90
3488;DHT22;38546;48.170;11.724;2023-03-19T16:41:29;13.20;99.90
3488;DHT22;38546;48.170;11.724;2023-03-19T16:44:26;13.10;99.90
3488;DHT22;38546;48.170;11.724;2023-03-19T16:47:16;13.00;99.90
3488;DHT22;38546;48.170;11.724;2023-03-19T16:50:05;12.80;99.90
3488;DHT22;38546;48.170;11.724;2023-03-19T16:52:56;12.80;99.90
3488;DHT22;38546;48.170;11.724;2023-03-19T16:55:47;12.70;99.90
3488;DHT22;38546;48.170;11.724;2023-03-19T16:58:41;12.70;99.90
3488;DHT22;38546;48.170;11.724;2023-03-19T17:01:31;12.70;99.90
3488;DHT22;38546;48.170;11.724;2023-03-19T17:04:20;12.70;99.90
3488;DHT22;38546;48.170;11.724;2023-03-19T17:07:09;12.60;99.90
3488;DHT22;38546;48.170;11.724;2023-03-19T17:09:59;12.60;99.90
3488;DHT22;38546;48.170;11.724;2023-03-19T17:12:50;12.50;99.90
3488;DHT22;38546;48.170;11.724;2023-03-19T17:15:41;12.50;99.90
3488;DHT22;38546;48.170;11.724;2023-03-19T17:18:39;12.40;99.90
3488;DHT22;38546;48.170;11.724;2023-03-19T17:21:31;12.40;99.90
3488;DHT22;38546;48.170;11.724;2023-03-19T17:24:27;12.40;99.90
3488;DHT22;38546;48.170;11.724;2023-03-19T17:27:17;12.30;99.90
3488;DHT22;38546;48.170;11.724;2023-03-19T17:30:07;12.30;99.90
3488;DHT22;38546;48.170;11.724;2023-03-19T17:32:57;12.20;99.90
3488;DHT22;38546;48.170;11.724;2023-03-19T17:35:46;12.20;99.90
3488;DHT22;38546;48.170;11.724;2023-03-19T17:38:36;12.10;99.90
3488;DHT22;38546;48.170;11.724;2023-03-19T17:41:29;12.00;99.90
3488;DHT22;38546;48.170;11.724;2023-03-19T17:44:20;11.90;99.90
3488;DHT22;38546;48.170;11.724;2023-03-19T17:47:10;11.90;99.90
3488;DHT22;38546;48.170;11.724;2023-03-19T17:49:59;11.80;99.90
3488;DHT22;38546;48.170;11.724;2023-03-19T17:52:49;11.80;99.90
3488;DHT22;38546;48.170;11.724;2023-03-19T17:55:40;11.80;99.90
3488;DHT22;38546;48.170;11.724;2023-03-19T17:58:29;11.70;99.90
3488;DHT22;38546;48.170;11.724;2023-03-19T18:01:24;11.60;99.90
3488;DHT22;38546;48.170;11.724;2023-03-19T18:04:16;11.60;99.90
3488;DHT22;38546;48.170;11.724;2023-03-19T18:07:08;11.60;99.90
3488;DHT22;38546;48.170;11.724;2023-03-19T18:09:58;11.60;99.90
3488;DHT22;38546;48.170;11.724;2023-03-19T18:12:47;11.60;99.90
3488;DHT22;38546;48.170;11.724;2023-03-19T18:15:37;11.50;99.90
3488;DHT22;38546;48.170;11.724;2023-03-19T18:18:28;11.40;99.90
3488;DHT22;38546;48.170;11.724;2023-03-19T18:21:18;11.40;99.90
3488;DHT22;38546;48.170;11.724;2023-03-19T18:24:09;11.30;99.90
3488;DHT22;38546;48.170;11.724;2023-03-19T18:26:58;11.30;99.90
3488;DHT22;38546;48.170;11.724;2023-03-19T18:29:47;11.20;99.90
3488;DHT22;38546;48.170;11.724;2023-03-19T18:32:37;11.20;99.90
3488;DHT22;38546;48.170;11.724;2023-03-19T18:35:37;11.10;99.90
3488;DHT22;38546;48.170;11.724;2023-03-19T18:38:28;11.10;99.90
3488;DHT22;38546;48.170;11.724;2023-03-19T18:41:19;11.00;99.90
3488;DHT22;38546;48.170;11.724;2023-03-19T18:44:09;10.90;99.90
3488;DHT22;38546;48.170;11.724;2023-03-19T18:46:59;10.90;99.90
3488;DHT22;38546;48.170;11.724;2023-03-19T18:49:48;10.80;99.90
3488;DHT22;38546;48.170;11.724;2023-03-19T18:52:37;10.70;99.90
3488;DHT22;38546;48.170;11.724;2023-03-19T18:55:28;10.60;99.90
3488;DHT22;38546;48.170;11.724;2023-03-19T18:58:21;10.50;99.90
3488;DHT22;38546;48.170;11.724;2023-03-19T19:01:14;10.40;99.90
3488;DHT22;38546;48.170;11.724;2023-03-19T19:04:04;10.40;99.90
3488;DHT22;38546;48.170;11.724;2023-03-19T19:06:53;10.30;99.90
3488;DHT22;38546;48.170;11.724;2023-03-19T19:09:43;10.30;99.90
3488;DHT22;38546;48.170;11.724;2023-03-19T19:12:34;10.20;99.90
3488;DHT22;38546;48.170;11.724;2023-03-19T19:15:29;10.20;99.90
3488;DHT22;38546;48.170;11.724;2023-03-19T19:18:25;10.20;99.90
3488;DHT22;38546;48.170;11.724;2023-03-19T19:21:17;10.20;99.90
3488;DHT22;38546;48.170;11.724;2023-03-19T19:24:06;10.20;99.90
3488;DHT22;38546;48.170;11.724;2023-03-19T19:26:55;10.20;99.90
3488;DHT22;38546;48.170;11.724;2023-03-19T19:29:49;10.20;99.90
3488;DHT22;38546;48.170;11.724;2023-03-19T19:32:40;10.20;99.90
3488;DHT22;38546;48.170;11.724;2023-03-19T19:35:29;10.20;99.90
3488;DHT22;38546;48.170;11.724;2023-03-19T19:38:20;10.20;99.90
3488;DHT22;38546;48.170;11.724;2023-03-19T19:41:14;10.20;99.90